Time;durP1;ratioP1;P1;durP2;ratioP2;P2;SDS_P1;SDS_P2;PMS_P1;PMS_P2;Temp;Humidity;BMP_temperature;BMP_pressure;BME280_temperature;BME280_humidity;BME280_pressure;Samples;Min_cycle;Max_cycle;Signal;HPM_P1;HPM_P2
2021/05/18 00:01:05;;;;;;;1.50;1.20;;;10.70;98.20;;;;;;5005744;28;20476;-82
2021/05/18 00:03:32;;;;;;;1.50;1.10;;;10.80;98.20;;;;;;5023611;28;20490;-84
2021/05/18 00:06:01;;;;;;;1.50;1.10;;;10.80;98.20;;;;;;5005656;28;20957;-83
2021/05/18 00:08:29;;;;;;;1.50;1.10;;;10.80;98.20;;;;;;5025539;28;20465;-85
2021/05/18 00:13:46;;;;;;;1.50;1.10;;;10.90;98.20;;;;;;5013482;28;20505;-82
2021/05/18 00:16:13;;;;;;;1.50;1.10;;;10.90;98.20;;;;;;5002466;28;20586;-83
2021/05/18 00:18:41;;;;;;;1.50;1.10;;;10.90;98.20;;;;;;5014913;28;20487;-83
2021/05/18 00:21:07;;;;;;;1.50;1.07;;;10.90;98.20;;;;;;5004187;28;21646;-82
2021/05/18 00:23:34;;;;;;;1.50;1.10;;;10.90;98.20;;;;;;5015510;28;20838;-82
2021/05/18 00:26:01;;;;;;;1.60;1.20;;;10.90;98.20;;;;;;5001049;28;20543;-83
2021/05/18 00:28:27;;;;;;;1.50;1.10;;;11.00;98.20;;;;;;5021360;28;20467;-83
2021/05/18 00:30:54;;;;;;;1.53;1.10;;;11.00;98.20;;;;;;5002731;28;20543;-83
2021/05/18 00:33:22;;;;;;;1.50;1.00;;;11.00;98.20;;;;;;5023755;28;20508;-83
2021/05/18 00:35:50;;;;;;;1.50;1.10;;;11.00;98.20;;;;;;5001348;28;20636;-82
2021/05/18 00:38:18;;;;;;;1.50;1.10;;;11.00;98.20;;;;;;5019034;28;20966;-84
2021/05/18 00:40:45;;;;;;;1.50;1.10;;;11.00;98.20;;;;;;5010473;28;20567;-83
2021/05/18 00:43:12;;;;;;;1.50;1.03;;;11.10;98.20;;;;;;4996973;28;20531;-82
2021/05/18 00:45:41;;;;;;;1.50;1.10;;;11.10;98.20;;;;;;5009848;28;20478;-83
2021/05/18 00:48:08;;;;;;;1.50;1.10;;;11.10;98.20;;;;;;5013939;28;20889;-83
2021/05/18 00:50:37;;;;;;;1.53;1.10;;;11.10;98.20;;;;;;5009911;28;20492;-83
2021/05/18 00:53:05;;;;;;;1.50;1.10;;;11.10;98.20;;;;;;5011490;28;20492;-83
2021/05/18 00:55:37;;;;;;;1.53;1.20;;;11.10;98.20;;;;;;5008377;28;20488;-83
2021/05/18 01:00:50;;;;;;;1.50;1.10;;;11.10;98.20;;;;;;4997662;28;20458;-83
2021/05/18 01:03:16;;;;;;;1.50;1.10;;;11.10;98.20;;;;;;5017989;28;20456;-82
2021/05/18 01:08:27;;;;;;;1.50;1.10;;;11.20;98.20;;;;;;4998779;28;20474;-78
2021/05/18 01:10:54;;;;;;;1.50;1.10;;;11.10;98.20;;;;;;5002264;28;20514;-79
2021/05/18 01:13:20;;;;;;;1.50;1.00;;;11.10;98.20;;;;;;5012604;28;20486;-78
2021/05/18 01:15:46;;;;;;;1.50;1.10;;;11.10;98.20;;;;;;5003490;28;20860;-79
2021/05/18 01:18:12;;;;;;;1.50;1.00;;;11.10;98.20;;;;;;5022183;28;21007;-79
2021/05/18 01:20:41;;;;;;;1.50;1.10;;;11.10;98.20;;;;;;5010875;28;20470;-80
2021/05/18 01:23:08;;;;;;;1.50;1.10;;;11.10;98.20;;;;;;5008820;28;20496;-79
2021/05/18 01:25:34;;;;;;;1.50;1.10;;;11.10;98.20;;;;;;5009985;28;20464;-79
2021/05/18 01:28:00;;;;;;;1.50;1.00;;;11.10;98.20;;;;;;5015811;28;20919;-79
2021/05/18 01:30:27;;;;;;;1.50;1.00;;;11.10;98.20;;;;;;5013129;28;20460;-79
2021/05/18 01:32:53;;;;;;;1.50;1.00;;;11.10;98.20;;;;;;5005612;28;20583;-79
2021/05/18 01:35:20;;;;;;;1.50;1.00;;;11.10;98.20;;;;;;5011066;28;20528;-78
2021/05/18 01:37:48;;;;;;;1.50;1.10;;;11.10;98.20;;;;;;5015036;28;20862;-80
2021/05/18 01:43:00;;;;;;;1.50;1.00;;;11.10;98.20;;;;;;5011836;28;20583;-78
2021/05/18 01:45:29;;;;;;;1.50;1.17;;;11.10;98.20;;;;;;5011066;28;20813;-77
2021/05/18 01:47:57;;;;;;;1.50;1.00;;;11.10;98.20;;;;;;5000350;28;20476;-79
2021/05/18 01:50:26;;;;;;;1.50;1.10;;;11.10;98.20;;;;;;5011102;28;20467;-78
2021/05/18 01:52:53;;;;;;;1.50;1.03;;;11.10;98.20;;;;;;5011674;28;20488;-77
2021/05/18 01:55:25;;;;;;;1.50;1.10;;;11.10;98.20;;;;;;5017779;28;20486;-78
2021/05/18 01:57:51;;;;;;;1.50;1.00;;;11.20;98.20;;;;;;5016366;28;20484;-77
2021/05/18 02:00:20;;;;;;;1.50;1.00;;;11.10;98.20;;;;;;5018056;28;20472;-79
2021/05/18 02:02:47;;;;;;;1.50;1.00;;;11.20;98.20;;;;;;5024296;28;20494;-77
2021/05/18 02:05:16;;;;;;;1.50;1.10;;;11.10;98.20;;;;;;5018090;28;20559;-78
2021/05/18 02:07:45;;;;;;;1.50;1.10;;;11.20;98.20;;;;;;5012645;28;20480;-78
2021/05/18 02:10:15;;;;;;;1.50;1.00;;;11.20;98.20;;;;;;5014333;28;20554;-77
2021/05/18 02:12:41;;;;;;;1.50;1.10;;;11.20;98.20;;;;;;5017147;28;20502;-77
2021/05/18 02:15:21;;;;;;;1.50;1.10;;;11.20;98.20;;;;;;5017786;28;20560;-78
2021/05/18 02:17:52;;;;;;;1.50;1.10;;;11.20;98.20;;;;;;5011390;28;20542;-77
2021/05/18 02:20:25;;;;;;;1.50;1.07;;;11.10;98.20;;;;;;5015616;28;21014;-79
2021/05/18 02:25:39;;;;;;;1.53;1.10;;;11.10;98.20;;;;;;5017729;28;20510;-79
2021/05/18 02:28:07;;;;;;;1.50;1.10;;;11.00;98.20;;;;;;5016014;28;20709;-77
2021/05/18 02:30:34;;;;;;;1.50;0.97;;;11.00;98.20;;;;;;5007597;28;20518;-78
2021/05/18 02:33:03;;;;;;;1.50;1.10;;;11.00;98.20;;;;;;5009391;28;20526;-77
2021/05/18 02:35:29;;;;;;;1.57;1.20;;;11.00;98.20;;;;;;5011039;28;20847;-78
2021/05/18 02:37:55;;;;;;;1.50;0.97;;;11.00;98.20;;;;;;5015646;28;20823;-76
2021/05/18 02:40:27;;;;;;;1.50;1.10;;;11.00;98.20;;;;;;5010026;28;20475;-76
2021/05/18 02:42:54;;;;;;;1.50;1.10;;;11.00;98.20;;;;;;5014099;28;20542;-76
2021/05/18 02:45:28;;;;;;;1.50;1.00;;;11.00;98.20;;;;;;5011580;28;20463;-78
2021/05/18 02:50:42;;;;;;;1.50;1.10;;;11.00;98.20;;;;;;5010196;28;20455;-78
2021/05/18 02:53:09;;;;;;;1.50;1.10;;;11.00;98.20;;;;;;5008104;28;20488;-77
2021/05/18 02:55:39;;;;;;;1.50;1.10;;;11.00;98.20;;;;;;5011791;28;20496;-77
2021/05/18 02:58:08;;;;;;;1.50;1.00;;;11.00;98.20;;;;;;5013265;28;20494;-77
2021/05/18 03:00:34;;;;;;;1.50;1.00;;;11.10;98.20;;;;;;5010494;28;20467;-77
2021/05/18 03:03:01;;;;;;;1.50;1.03;;;11.10;98.20;;;;;;5010371;28;20545;-76
2021/05/18 03:05:27;;;;;;;1.50;1.00;;;11.10;98.20;;;;;;5010225;28;20754;-75
2021/05/18 03:07:55;;;;;;;1.50;1.10;;;11.10;98.20;;;;;;5015062;28;20885;-77
2021/05/18 03:10:21;;;;;;;1.53;1.20;;;11.10;98.20;;;;;;5013440;28;20993;-77
2021/05/18 03:12:49;;;;;;;1.50;1.10;;;11.10;98.20;;;;;;5015081;28;20498;-77
2021/05/18 03:15:17;;;;;;;1.50;1.10;;;11.10;98.20;;;;;;5009269;28;20970;-77
2021/05/18 03:17:47;;;;;;;1.50;1.10;;;11.10;98.20;;;;;;5013240;28;20479;-77
2021/05/18 03:20:18;;;;;;;1.50;1.10;;;11.10;98.20;;;;;;5010042;28;20491;-77
2021/05/18 03:22:45;;;;;;;1.53;1.10;;;11.10;98.20;;;;;;5012266;28;20557;-77
2021/05/18 03:25:28;;;;;;;1.50;1.10;;;11.10;98.20;;;;;;5008604;28;20540;-77
2021/05/18 03:28:01;;;;;;;1.50;1.10;;;11.10;98.20;;;;;;5014956;28;20479;-77
2021/05/18 03:30:45;;;;;;;1.50;1.00;;;11.10;98.20;;;;;;5010169;28;20456;-77
2021/05/18 03:36:17;;;;;;;1.50;1.07;;;11.10;98.20;;;;;;5001155;28;20534;-77
2021/05/18 03:38:48;;;;;;;1.50;1.20;;;11.10;98.20;;;;;;5022188;28;20460;-78
2021/05/18 03:41:21;;;;;;;1.50;1.00;;;11.10;98.20;;;;;;4999058;28;20584;-77
2021/05/18 03:43:58;;;;;;;1.50;1.20;;;11.10;98.20;;;;;;5011855;28;20467;-77
2021/05/18 03:52:26;;;;;;;1.50;1.10;;;11.00;98.20;;;;;;5000960;28;20544;-75
2021/05/18 03:58:31;;;;;;;1.50;1.10;;;11.00;98.20;;;;;;5008625;28;20484;-78
2021/05/18 04:03:27;;;;;;;1.50;1.10;;;11.00;98.20;;;;;;4999700;28;20791;-77
2021/05/18 04:11:50;;;;;;;1.50;1.00;;;11.00;98.20;;;;;;5008510;28;20521;-77
2021/05/18 04:17:07;;;;;;;1.50;1.10;;;11.00;98.20;;;;;;5012616;28;20568;-77
2021/05/18 04:19:46;;;;;;;1.50;1.10;;;11.00;98.20;;;;;;5015749;28;20510;-77
2021/05/18 04:50:49;;;;;;;1.50;1.10;;;11.20;98.20;;;;;;5014196;28;20447;-77
2021/05/18 04:53:22;;;;;;;1.50;1.00;;;11.20;98.20;;;;;;5003284;28;20563;-76
2021/05/18 04:59:04;;;;;;;1.50;1.10;;;11.20;98.20;;;;;;5013775;23;20499;-79
2021/05/18 05:01:39;;;;;;;1.50;1.10;;;11.20;98.20;;;;;;5009086;28;20475;-78
2021/05/18 05:04:14;;;;;;;1.50;1.10;;;11.20;98.20;;;;;;5026867;28;21015;-79
2021/05/18 05:06:49;;;;;;;1.50;1.10;;;11.20;98.20;;;;;;5017973;28;20478;-78
2021/05/18 05:09:22;;;;;;;1.50;1.07;;;11.30;98.20;;;;;;5022839;28;20893;-77
2021/05/18 05:14:33;;;;;;;1.50;1.10;;;11.30;98.20;;;;;;5023791;28;20888;-78
2021/05/18 05:16:59;;;;;;;1.53;1.10;;;11.30;98.20;;;;;;5018011;28;20490;-78
2021/05/18 05:19:27;;;;;;;1.50;1.10;;;11.30;98.20;;;;;;5024549;28;20494;-78
2021/05/18 05:21:55;;;;;;;1.50;1.00;;;11.30;98.20;;;;;;5007700;28;20479;-78
2021/05/18 05:24:22;;;;;;;1.50;1.10;;;11.30;98.20;;;;;;5026446;28;20567;-77
2021/05/18 05:26:49;;;;;;;1.50;1.00;;;11.40;98.20;;;;;;5018288;28;20579;-78
2021/05/18 05:29:16;;;;;;;1.50;1.00;;;11.40;98.20;;;;;;5027136;28;20484;-77
2021/05/18 05:31:43;;;;;;;1.50;1.07;;;11.40;98.20;;;;;;5013834;28;20789;-77
2021/05/18 05:34:09;;;;;;;1.50;1.00;;;11.40;98.20;;;;;;5022749;28;20550;-78
2021/05/18 05:36:37;;;;;;;1.50;1.10;;;11.40;98.20;;;;;;5013292;28;20515;-78
2021/05/18 05:39:07;;;;;;;1.50;1.10;;;11.50;98.20;;;;;;5015168;28;20503;-79
2021/05/18 05:41:34;;;;;;;1.50;1.00;;;11.50;98.20;;;;;;5013257;28;20545;-78
2021/05/18 05:44:01;;;;;;;1.50;1.00;;;11.50;98.20;;;;;;5026258;28;20482;-79
2021/05/18 05:46:27;;;;;;;1.50;1.10;;;11.50;98.20;;;;;;5014158;28;20479;-78
2021/05/18 05:48:54;;;;;;;1.50;1.10;;;11.60;98.20;;;;;;5024750;28;20480;-78
2021/05/18 05:51:23;;;;;;;1.50;1.10;;;11.60;98.20;;;;;;5009778;28;20482;-78
2021/05/18 05:53:50;;;;;;;1.50;1.00;;;11.60;98.20;;;;;;5013864;28;20487;-79
2021/05/18 05:56:17;;;;;;;1.50;1.10;;;11.60;98.20;;;;;;5010495;28;20539;-78
2021/05/18 05:58:44;;;;;;;1.50;1.00;;;11.70;98.20;;;;;;5024350;28;20519;-78
2021/05/18 06:01:11;;;;;;;1.50;1.00;;;11.70;98.20;;;;;;5017448;28;20818;-79
2021/05/18 06:03:37;;;;;;;1.57;1.10;;;11.80;98.20;;;;;;5021114;28;20917;-79
2021/05/18 06:06:04;;;;;;;1.50;1.10;;;11.80;98.20;;;;;;5003724;28;20460;-79
2021/05/18 06:08:35;;;;;;;1.50;1.10;;;11.90;98.20;;;;;;5027289;28;20484;-79
2021/05/18 06:11:04;;;;;;;1.50;1.00;;;12.00;98.20;;;;;;5005082;28;20460;-79
2021/05/18 06:13:46;;;;;;;1.50;1.10;;;12.10;98.20;;;;;;5028831;28;20484;-79
2021/05/18 06:41:35;;;;;;;1.53;1.03;;;12.60;98.20;;;;;;5012779;28;20486;-79
2021/05/18 06:46:53;;;;;;;1.50;1.00;;;12.80;98.20;;;;;;5007999;28;20514;-80
2021/05/18 06:49:20;;;;;;;1.50;1.00;;;12.80;98.20;;;;;;5027628;28;20900;-79
2021/05/18 06:51:47;;;;;;;1.50;1.00;;;12.80;98.20;;;;;;5017961;28;21020;-79
2021/05/18 06:54:13;;;;;;;1.50;1.10;;;12.80;98.20;;;;;;5021629;28;20477;-80
2021/05/18 06:56:41;;;;;;;1.50;1.00;;;12.90;98.20;;;;;;5018698;28;20493;-80
2021/05/18 07:01:56;;;;;;;1.50;0.90;;;12.90;98.20;;;;;;5008633;28;21140;-80
2021/05/18 07:04:24;;;;;;;1.50;0.90;;;12.90;98.20;;;;;;5023990;28;20803;-80
2021/05/18 07:06:54;;;;;;;1.50;1.00;;;12.90;98.20;;;;;;5013046;28;20488;-79
2021/05/18 07:09:20;;;;;;;1.50;1.00;;;12.90;98.20;;;;;;5023938;28;20480;-80
2021/05/18 07:11:46;;;;;;;1.50;0.90;;;13.00;98.20;;;;;;5015977;28;20483;-80
2021/05/18 07:14:12;;;;;;;1.50;1.00;;;13.00;98.20;;;;;;5023573;28;20610;-80
2021/05/18 07:16:39;;;;;;;1.57;1.03;;;13.10;98.20;;;;;;5007484;28;20511;-80
2021/05/18 07:19:05;;;;;;;1.50;1.00;;;13.20;98.20;;;;;;5018096;28;20480;-80
2021/05/18 07:21:32;;;;;;;1.53;1.03;;;13.30;98.20;;;;;;5015003;28;20479;-80
2021/05/18 07:23:58;;;;;;;1.57;1.00;;;13.30;98.20;;;;;;5017629;28;20465;-80
2021/05/18 07:26:25;;;;;;;1.50;0.97;;;13.40;98.20;;;;;;5014743;28;20482;-80
2021/05/18 07:28:51;;;;;;;1.50;1.00;;;13.40;98.20;;;;;;5025002;28;20488;-81
2021/05/18 07:31:17;;;;;;;1.50;1.00;;;13.50;98.20;;;;;;5012223;28;20479;-80
2021/05/18 07:33:44;;;;;;;1.50;1.00;;;13.60;98.20;;;;;;5020080;28;20559;-80
2021/05/18 07:36:10;;;;;;;1.50;1.00;;;13.70;98.20;;;;;;5007625;28;20487;-81
2021/05/18 07:38:40;;;;;;;1.53;1.10;;;13.80;98.20;;;;;;5032146;28;20488;-80
2021/05/18 07:41:07;;;;;;;1.50;1.10;;;14.00;98.20;;;;;;5003401;28;20472;-80
2021/05/18 07:43:34;;;;;;;1.57;1.00;;;14.20;98.20;;;;;;5026707;28;20470;-80
2021/05/18 07:46:03;;;;;;;1.57;1.00;;;14.40;98.20;;;;;;5002869;28;20471;-80
2021/05/18 07:48:31;;;;;;;1.50;1.00;;;14.60;98.20;;;;;;5022856;28;20967;-81
2021/05/18 07:51:07;;;;;;;1.53;1.00;;;14.80;98.20;;;;;;4999248;28;20472;-80
2021/05/18 07:59:23;;;;;;;1.50;1.00;;;15.30;98.20;;;;;;5010185;28;20502;-81
2021/05/18 08:07:19;;;;;;;1.50;1.00;;;15.80;98.20;;;;;;5010510;28;20564;-81
2021/05/18 08:09:48;;;;;;;1.53;1.10;;;16.00;98.20;;;;;;5009439;28;20554;-80
2021/05/18 08:12:15;;;;;;;1.50;1.00;;;16.30;97.70;;;;;;5009440;28;20570;-80
2021/05/18 08:14:45;;;;;;;1.50;1.00;;;16.50;96.60;;;;;;5011863;28;20495;-81
2021/05/18 08:17:17;;;;;;;1.53;1.00;;;16.60;96.30;;;;;;5007239;28;20508;-78
2021/05/18 10:34:48;;;;;;;1.50;0.90;;;19.30;82.70;;;;;;5013866;28;20216;-79
2021/05/18 10:37:24;;;;;;;1.50;0.90;;;19.50;78.90;;;;;;5012308;28;20483;-77
2021/05/18 10:40:24;;;;;;;1.50;0.90;;;19.80;79.50;;;;;;5011364;28;20486;-77
2021/05/18 10:43:12;;;;;;;1.50;0.90;;;19.80;79.30;;;;;;5005249;28;20953;-77
2021/05/18 10:46:07;;;;;;;1.50;0.90;;;19.70;78.50;;;;;;5008726;28;20476;-77
2021/05/18 10:48:54;;;;;;;1.50;0.90;;;19.60;80.00;;;;;;4994107;28;20512;-77
2021/05/18 10:51:34;;;;;;;1.50;1.00;;;19.30;80.00;;;;;;4997389;28;20475;-77
2021/05/18 10:54:14;;;;;;;1.50;0.90;;;19.00;80.50;;;;;;5011980;28;20502;-77
2021/05/18 10:57:06;;;;;;;1.50;1.00;;;18.80;81.60;;;;;;5002150;28;20491;-77
2021/05/18 11:02:14;;;;;;;1.50;0.90;;;18.50;83.10;;;;;;4996588;28;20518;-85
2021/05/18 11:04:43;;;;;;;1.50;0.90;;;18.70;83.00;;;;;;5001468;28;20468;-86
2021/05/18 11:07:11;;;;;;;1.50;0.90;;;19.10;81.20;;;;;;4994895;28;20477;-85
2021/05/18 11:09:39;;;;;;;1.50;1.10;;;19.60;79.20;;;;;;5003050;28;20463;-86
2021/05/18 11:12:09;;;;;;;1.50;0.90;;;19.80;77.20;;;;;;4996114;28;20476;-83
2021/05/18 11:14:47;;;;;;;1.50;0.90;;;19.70;78.00;;;;;;4997266;28;20457;-85
2021/05/18 11:17:22;;;;;;;1.50;0.90;;;19.60;79.60;;;;;;4996351;28;20488;-86
2021/05/18 11:20:02;;;;;;;1.50;0.90;;;19.40;80.20;;;;;;4994812;28;20452;-84
2021/05/18 11:25:29;;;;;;;1.50;0.90;;;18.80;81.20;;;;;;4999101;28;20505;-85
2021/05/18 11:28:08;;;;;;;1.50;0.90;;;18.50;82.00;;;;;;4997390;28;20488;-86
2021/05/18 11:30:35;;;;;;;1.50;0.90;;;18.30;81.70;;;;;;5011947;23;20639;-79
2021/05/18 11:33:02;;;;;;;1.53;1.03;;;18.10;81.20;;;;;;4994564;28;20498;-78
2021/05/18 11:35:29;;;;;;;1.50;0.93;;;17.90;82.60;;;;;;4985957;28;20806;-79
2021/05/18 11:38:00;;;;;;;1.50;0.90;;;17.80;82.90;;;;;;4993445;28;20480;-77
2021/05/18 11:40:27;;;;;;;1.50;0.90;;;17.80;83.00;;;;;;4988734;28;20493;-78
2021/05/18 11:42:54;;;;;;;1.50;0.90;;;17.90;83.20;;;;;;4994077;28;20488;-78
2021/05/18 11:45:22;;;;;;;1.50;0.90;;;18.20;83.00;;;;;;4988559;28;20591;-77
2021/05/18 11:47:51;;;;;;;1.50;0.90;;;18.60;82.00;;;;;;4991072;28;20545;-77
2021/05/18 11:50:22;;;;;;;1.50;0.90;;;18.90;82.10;;;;;;4991357;28;20504;-77
2021/05/18 11:52:49;;;;;;;1.50;0.90;;;19.40;80.90;;;;;;4996698;28;21186;-77
2021/05/18 11:55:28;;;;;;;1.50;0.90;;;19.80;80.00;;;;;;4989991;28;20511;-77
2021/05/18 11:57:56;;;;;;;1.57;0.90;;;20.20;79.50;;;;;;4992197;28;20585;-77
2021/05/18 12:00:33;;;;;;;1.50;0.90;;;20.40;79.10;;;;;;4988834;28;20559;-77
2021/05/18 12:03:05;;;;;;;1.50;0.90;;;20.40;78.30;;;;;;4995141;28;20483;-77
2021/05/18 12:05:34;;;;;;;1.50;0.90;;;20.30;80.40;;;;;;4985851;28;20537;-78
2021/05/18 12:08:00;;;;;;;1.70;1.10;;;20.20;78.80;;;;;;4991250;28;20560;-78
2021/05/18 12:10:28;;;;;;;1.50;1.00;;;20.10;80.20;;;;;;4988194;28;20485;-76
2021/05/18 12:12:54;;;;;;;1.50;0.90;;;20.40;78.50;;;;;;4997388;28;20564;-77
2021/05/18 12:15:21;;;;;;;1.50;1.00;;;20.60;79.00;;;;;;4989383;28;20468;-77
2021/05/18 12:17:47;;;;;;;1.50;0.90;;;20.60;78.40;;;;;;4988980;28;20606;-78
2021/05/18 12:20:16;;;;;;;1.50;0.90;;;20.40;79.00;;;;;;4989352;28;20491;-77
2021/05/18 12:22:45;;;;;;;1.50;0.90;;;20.10;79.70;;;;;;4988665;28;20504;-77
2021/05/18 12:25:27;;;;;;;1.50;0.90;;;19.90;80.80;;;;;;4990442;28;20847;-78
2021/05/18 12:27:53;;;;;;;1.50;0.90;;;19.60;82.00;;;;;;4971860;28;20531;-78
2021/05/18 12:30:20;;;;;;;1.50;0.90;;;19.30;83.10;;;;;;4987359;28;20492;-78
2021/05/18 12:32:48;;;;;;;1.50;0.90;;;19.00;84.90;;;;;;4991625;28;20495;-77
2021/05/18 12:35:20;;;;;;;1.50;0.90;;;18.80;85.50;;;;;;4987303;28;20482;-78
2021/05/18 12:37:49;;;;;;;1.50;0.90;;;18.60;87.10;;;;;;4992788;28;20546;-80
2021/05/18 12:40:19;;;;;;;1.50;0.93;;;18.40;86.60;;;;;;4988958;28;20802;-80
2021/05/18 12:42:47;;;;;;;1.50;1.00;;;18.10;86.50;;;;;;4990242;28;20502;-78
2021/05/18 12:45:21;;;;;;;1.50;1.00;;;18.00;87.00;;;;;;4988295;28;20496;-77
2021/05/18 12:47:52;;;;;;;1.50;1.00;;;17.70;84.10;;;;;;4976851;28;20520;-78
2021/05/18 12:50:19;;;;;;;1.50;0.97;;;17.10;83.20;;;;;;4989338;28;20608;-78
2021/05/18 12:52:48;;;;;;;1.50;0.90;;;16.70;84.80;;;;;;4987440;28;20511;-77
2021/05/18 12:55:17;;;;;;;1.50;0.90;;;16.20;84.80;;;;;;4989586;28;20465;-77
2021/05/18 12:57:53;;;;;;;1.50;0.93;;;15.90;87.90;;;;;;4992624;28;20796;-77
2021/05/18 13:00:31;;;;;;;1.50;1.00;;;15.50;89.50;;;;;;4988722;28;20488;-78
2021/05/18 13:03:09;;;;;;;1.50;0.90;;;15.20;92.20;;;;;;4982246;28;20496;-78
2021/05/18 13:05:36;;;;;;;1.53;1.10;;;15.00;94.00;;;;;;4984380;28;20469;-80
2021/05/18 13:08:19;;;;;;;1.50;0.90;;;14.80;94.80;;;;;;4989173;28;20905;-78
2021/05/18 13:10:52;;;;;;;1.50;0.90;;;14.60;95.70;;;;;;4990076;28;20983;-80
2021/05/18 13:13:19;;;;;;;1.50;1.00;;;14.50;96.50;;;;;;5004388;28;20640;-78
2021/05/18 13:15:47;;;;;;;1.50;1.00;;;14.50;97.00;;;;;;4989267;28;20489;-80
2021/05/18 13:18:13;;;;;;;1.50;0.90;;;14.50;97.10;;;;;;5004853;28;20476;-80
2021/05/18 13:20:49;;;;;;;1.50;1.00;;;14.50;97.40;;;;;;4995850;28;20497;-78
2021/05/18 13:23:24;;;;;;;1.50;1.00;;;14.50;97.40;;;;;;4982136;28;20595;-80
2021/05/18 13:28:36;;;;;;;1.50;0.90;;;14.40;96.50;;;;;;5002780;28;20460;-78
2021/05/18 13:31:03;;;;;;;1.50;1.00;;;14.50;96.80;;;;;;4985256;28;20501;-80
2021/05/18 13:33:29;;;;;;;1.50;1.00;;;14.50;95.50;;;;;;4994120;28;20472;-79
2021/05/18 13:35:56;;;;;;;1.50;1.00;;;14.50;96.50;;;;;;4984238;28;20535;-79
2021/05/18 13:38:23;;;;;;;1.50;0.90;;;14.50;96.20;;;;;;5002937;28;20471;-80
2021/05/18 13:40:50;;;;;;;1.50;1.07;;;14.50;97.40;;;;;;4990889;28;20503;-81
2021/05/18 13:43:17;;;;;;;1.50;0.90;;;14.60;97.60;;;;;;4999355;28;20467;-81
2021/05/18 13:45:43;;;;;;;1.50;1.00;;;14.60;97.90;;;;;;5001103;28;20465;-81
2021/05/18 13:48:10;;;;;;;1.50;0.97;;;14.70;98.10;;;;;;5005083;28;20507;-80
2021/05/18 13:50:38;;;;;;;1.50;1.00;;;14.80;97.60;;;;;;5000485;28;20935;-80
2021/05/18 13:53:05;;;;;;;1.50;1.00;;;15.00;97.40;;;;;;5004584;28;20484;-81
2021/05/18 13:55:32;;;;;;;1.50;1.00;;;15.50;96.40;;;;;;4993750;28;20468;-80
2021/05/18 13:57:59;;;;;;;1.50;1.00;;;16.20;92.30;;;;;;5005473;28;20484;-81
2021/05/18 14:00:26;;;;;;;1.50;0.90;;;16.90;93.60;;;;;;4998325;28;20519;-81
2021/05/18 14:02:53;;;;;;;1.50;0.93;;;17.60;93.30;;;;;;5000682;28;20877;-81
2021/05/18 14:05:21;;;;;;;1.50;1.00;;;18.00;88.90;;;;;;5000070;28;20469;-80
2021/05/18 14:08:22;;;;;;;1.53;0.90;;;18.30;87.40;;;;;;4997609;28;20492;-81
2021/05/18 14:10:50;;;;;;;1.57;0.90;;;18.40;85.00;;;;;;4981450;28;20489;-80
2021/05/18 14:13:17;;;;;;;1.50;0.90;;;18.20;82.50;;;;;;5008437;28;20519;-80
2021/05/18 14:15:44;;;;;;;1.50;0.90;;;17.90;81.70;;;;;;4992755;28;20469;-80
2021/05/18 14:18:11;;;;;;;1.50;0.90;;;17.70;83.60;;;;;;4993002;28;20854;-80
2021/05/18 14:20:38;;;;;;;1.50;0.90;;;17.50;83.80;;;;;;4992990;28;20555;-80
2021/05/18 14:23:05;;;;;;;1.50;0.90;;;17.20;85.50;;;;;;4992455;28;20492;-80
2021/05/18 14:25:32;;;;;;;1.50;0.90;;;16.80;87.40;;;;;;4988744;28;20469;-80
2021/05/18 14:27:59;;;;;;;1.50;0.90;;;16.40;89.30;;;;;;4993031;28;20476;-80
2021/05/18 14:30:27;;;;;;;1.50;0.97;;;16.10;91.00;;;;;;4991728;28;20497;-80
2021/05/18 14:32:53;;;;;;;1.50;1.00;;;15.90;91.10;;;;;;4988777;28;20495;-79
2021/05/18 14:35:20;;;;;;;1.50;0.90;;;15.50;91.80;;;;;;4992247;28;20472;-79
2021/05/18 14:37:50;;;;;;;1.50;1.00;;;15.30;92.90;;;;;;4990373;28;20480;-79
2021/05/18 14:40:41;;;;;;;1.50;1.00;;;15.20;93.10;;;;;;4995056;28;20584;-79
2021/05/18 14:43:27;;;;;;;1.50;1.00;;;15.00;93.90;;;;;;4990986;28;20517;-80
2021/05/18 14:45:59;;;;;;;1.50;0.93;;;14.90;94.10;;;;;;4980864;28;20481;-79
2021/05/18 14:54:03;;;;;;;1.50;1.00;;;14.90;95.60;;;;;;4991677;28;20464;-79
2021/05/18 14:56:30;;;;;;;1.50;1.00;;;14.90;94.60;;;;;;4981100;28;20813;-79
2021/05/18 14:58:56;;;;;;;1.50;0.90;;;14.80;94.50;;;;;;4996713;28;20496;-79
2021/05/18 15:01:23;;;;;;;1.50;1.00;;;14.80;94.50;;;;;;4980166;28;20485;-79
2021/05/18 15:03:49;;;;;;;1.50;1.00;;;14.80;95.40;;;;;;4994230;28;20987;-78
2021/05/18 15:06:15;;;;;;;1.50;1.00;;;14.90;93.40;;;;;;4978337;28;20499;-79
2021/05/18 15:08:42;;;;;;;1.50;1.00;;;15.10;92.90;;;;;;4996814;28;21073;-80
2021/05/18 15:11:08;;;;;;;1.50;0.90;;;15.50;92.60;;;;;;4978664;28;20541;-80
2021/05/18 15:13:35;;;;;;;1.50;1.00;;;15.90;91.70;;;;;;5004453;28;20464;-80
2021/05/18 15:16:01;;;;;;;1.50;0.90;;;16.20;90.70;;;;;;4978383;28;20489;-80
2021/05/18 15:18:30;;;;;;;1.50;1.00;;;16.50;90.00;;;;;;4997232;28;20465;-80
2021/05/18 15:20:56;;;;;;;1.50;0.90;;;16.60;90.30;;;;;;4977380;28;20493;-79
2021/05/18 15:23:23;;;;;;;1.50;1.00;;;16.80;88.90;;;;;;4997939;28;20560;-80
2021/05/18 15:25:49;;;;;;;1.50;0.90;;;16.60;87.30;;;;;;4976840;28;20591;-79
2021/05/18 15:28:15;;;;;;;1.50;0.90;;;16.60;88.90;;;;;;5000548;28;20940;-79
2021/05/18 15:30:45;;;;;;;1.50;0.90;;;16.60;88.40;;;;;;4983522;28;20499;-79
2021/05/18 15:33:11;;;;;;;1.50;1.00;;;16.40;87.50;;;;;;4974666;28;20480;-78
2021/05/18 15:35:38;;;;;;;1.50;0.90;;;16.20;88.90;;;;;;4986016;28;20464;-79
2021/05/18 15:38:05;;;;;;;1.50;1.00;;;15.90;90.40;;;;;;4992253;28;20492;-79
2021/05/18 15:40:31;;;;;;;1.50;1.00;;;15.70;91.50;;;;;;4982837;28;20493;-79
2021/05/18 15:42:58;;;;;;;1.50;1.00;;;15.60;91.70;;;;;;4977774;28;20488;-79
2021/05/18 15:45:24;;;;;;;1.50;0.90;;;15.60;93.00;;;;;;4991545;28;20465;-79
2021/05/18 15:47:50;;;;;;;1.50;1.00;;;15.60;93.70;;;;;;4993970;28;20488;-80
2021/05/18 15:50:17;;;;;;;1.50;0.90;;;15.50;94.20;;;;;;4989348;28;20816;-80
2021/05/18 15:52:44;;;;;;;1.50;0.90;;;15.50;95.20;;;;;;4992392;28;20483;-80
2021/05/18 15:55:11;;;;;;;1.50;0.90;;;15.60;94.50;;;;;;4988198;28;20906;-78
2021/05/18 15:57:37;;;;;;;1.50;1.00;;;15.60;95.00;;;;;;4990587;28;20556;-79
2021/05/18 16:00:05;;;;;;;1.50;0.90;;;15.60;95.20;;;;;;4987550;28;20555;-79
2021/05/18 16:02:32;;;;;;;1.50;0.90;;;15.60;93.90;;;;;;4984971;28;20566;-78
2021/05/18 16:04:58;;;;;;;1.50;1.00;;;15.50;92.50;;;;;;4993471;28;20472;-80
2021/05/18 16:07:26;;;;;;;1.50;0.90;;;15.30;90.00;;;;;;4991886;28;20490;-79
2021/05/18 16:09:53;;;;;;;1.50;1.00;;;15.20;87.70;;;;;;4994991;28;20572;-80
2021/05/18 16:12:20;;;;;;;1.50;0.93;;;15.30;88.10;;;;;;4990934;28;20476;-80
2021/05/18 16:14:47;;;;;;;1.50;1.07;;;15.30;86.80;;;;;;4991418;28;20465;-80
2021/05/18 16:17:15;;;;;;;1.50;1.00;;;15.20;87.30;;;;;;4992524;28;20523;-80
2021/05/18 16:19:42;;;;;;;1.50;0.97;;;15.20;88.00;;;;;;4993377;28;20485;-79
2021/05/18 16:22:08;;;;;;;1.50;1.00;;;15.10;90.50;;;;;;4991226;28;20502;-80
2021/05/18 16:24:35;;;;;;;1.50;1.00;;;15.10;92.70;;;;;;4994497;28;20473;-78
2021/05/18 16:27:04;;;;;;;1.50;1.00;;;15.10;93.90;;;;;;4988700;28;20543;-80
2021/05/18 16:29:32;;;;;;;1.50;1.00;;;15.20;93.20;;;;;;4994500;28;20493;-77
2021/05/18 16:31:59;;;;;;;1.50;0.90;;;15.40;92.40;;;;;;4987182;28;20488;-78
2021/05/18 16:34:27;;;;;;;1.50;0.90;;;15.40;90.10;;;;;;4993316;28;20903;-77
2021/05/18 16:36:53;;;;;;;1.50;0.90;;;15.20;89.00;;;;;;4987284;28;20484;-77
2021/05/18 16:39:22;;;;;;;1.50;1.00;;;15.20;85.70;;;;;;4997265;28;20873;-78
2021/05/18 16:41:51;;;;;;;1.50;1.00;;;15.20;88.50;;;;;;4983555;28;20757;-78
2021/05/18 16:44:19;;;;;;;1.50;1.00;;;15.30;89.60;;;;;;4991246;28;20461;-79
2021/05/18 16:46:45;;;;;;;1.50;0.90;;;15.10;86.00;;;;;;4983645;28;20753;-79
2021/05/18 16:49:11;;;;;;;1.50;1.00;;;15.10;87.80;;;;;;4990996;28;20489;-78
2021/05/18 16:51:39;;;;;;;1.50;1.00;;;15.00;86.90;;;;;;4987671;28;20476;-78
2021/05/18 16:54:07;;;;;;;1.50;0.90;;;14.90;87.80;;;;;;5001596;28;20521;-79
2021/05/18 16:56:33;;;;;;;1.50;1.00;;;14.90;88.30;;;;;;4980681;28;21108;-80
2021/05/18 16:58:59;;;;;;;1.50;0.97;;;14.90;89.70;;;;;;4997541;28;20472;-79
2021/05/18 17:01:27;;;;;;;1.50;0.90;;;14.80;89.10;;;;;;4987145;28;20673;-78
2021/05/18 17:03:53;;;;;;;1.50;0.97;;;14.70;90.00;;;;;;5000078;28;20923;-79
2021/05/18 17:06:19;;;;;;;1.50;1.00;;;14.60;90.90;;;;;;4984378;28;20475;-80
2021/05/18 17:08:45;;;;;;;1.50;0.90;;;14.50;91.70;;;;;;5006574;28;20467;-78
2021/05/18 17:11:12;;;;;;;1.50;1.00;;;14.40;92.20;;;;;;4986301;28;20549;-79
2021/05/18 17:13:38;;;;;;;1.50;1.00;;;14.30;92.30;;;;;;5002560;28;20473;-79
2021/05/18 17:16:05;;;;;;;1.50;1.00;;;14.20;91.80;;;;;;4984298;28;22131;-79
2021/05/18 17:18:33;;;;;;;1.50;0.93;;;14.20;93.20;;;;;;5000059;28;20479;-79
2021/05/18 17:21:00;;;;;;;1.50;1.00;;;14.10;92.00;;;;;;4983557;28;21015;-79
2021/05/18 17:23:26;;;;;;;1.50;1.00;;;14.10;92.80;;;;;;5003222;28;20547;-79